Terminal Aerodrome Forecast
Issued by NWS North Platte, NE

Home | Current Version | Previous Version | Graphics & Text | Print | Product List | Glossary On
Versions: 1 2 3 4 5 6 7 8 9 10 11 12 13 14 15 16 17
000
FTUS43 KLBF 302200 AAA
TAFVTN
TAF AMD
KVTN 302235Z 3023/0118 19013G19KT P6SM SCT100
      TEMPO 3023/0101 -TSRA BKN070CB OVC150
     FM010200 23004KT P6SM BKN120 BKN300
     FM010600 32007KT P6SM OVC080=

USA.gov is the U.S. government's official web portal to all federal, state and local government web resources and services.